sensor_id;sensor_type;location;lat;lon;timestamp;P1;durP1;ratioP1;P2;durP2;ratioP2
51560;SDS011;37654;51.262;17.058;2023-12-20T00:01:24;25.83;;;11.98;;
51560;SDS011;37654;51.262;17.058;2023-12-20T00:03:50;34.83;;;15.15;;
51560;SDS011;37654;51.262;17.058;2023-12-20T00:06:15;33.60;;;14.60;;
51560;SDS011;37654;51.262;17.058;2023-12-20T00:08:40;30.42;;;13.77;;
51560;SDS011;37654;51.262;17.058;2023-12-20T00:11:06;25.45;;;13.20;;
51560;SDS011;37654;51.262;17.058;2023-12-20T00:13:31;25.50;;;12.07;;
51560;SDS011;37654;51.262;17.058;2023-12-20T00:15:56;24.27;;;11.40;;
51560;SDS011;37654;51.262;17.058;2023-12-20T00:18:23;22.23;;;10.77;;
51560;SDS011;37654;51.262;17.058;2023-12-20T00:20:48;24.02;;;10.98;;
51560;SDS011;37654;51.262;17.058;2023-12-20T00:23:15;18.95;;;9.45;;
51560;SDS011;37654;51.262;17.058;2023-12-20T00:25:42;28.60;;;10.93;;
51560;SDS011;37654;51.262;17.058;2023-12-20T00:28:07;23.52;;;9.32;;
51560;SDS011;37654;51.262;17.058;2023-12-20T00:30:33;20.83;;;9.98;;
51560;SDS011;37654;51.262;17.058;2023-12-20T00:32:59;21.00;;;10.20;;
51560;SDS011;37654;51.262;17.058;2023-12-20T00:35:24;22.17;;;10.45;;
51560;SDS011;37654;51.262;17.058;2023-12-20T00:37:49;22.13;;;11.00;;
51560;SDS011;37654;51.262;17.058;2023-12-20T00:40:19;19.25;;;8.95;;
51560;SDS011;37654;51.262;17.058;2023-12-20T00:42:54;19.77;;;9.23;;
51560;SDS011;37654;51.262;17.058;2023-12-20T00:45:28;21.38;;;9.48;;
51560;SDS011;37654;51.262;17.058;2023-12-20T00:47:54;18.63;;;9.13;;
51560;SDS011;37654;51.262;17.058;2023-12-20T00:50:20;22.85;;;9.85;;
51560;SDS011;37654;51.262;17.058;2023-12-20T00:52:46;19.63;;;9.15;;
51560;SDS011;37654;51.262;17.058;2023-12-20T00:55:19;19.10;;;8.15;;
51560;SDS011;37654;51.262;17.058;2023-12-20T00:57:46;19.77;;;9.45;;
51560;SDS011;37654;51.262;17.058;2023-12-20T01:00:14;18.60;;;8.23;;
51560;SDS011;37654;51.262;17.058;2023-12-20T01:02:43;18.08;;;7.75;;
51560;SDS011;37654;51.262;17.058;2023-12-20T01:05:08;16.23;;;7.53;;
51560;SDS011;37654;51.262;17.058;2023-12-20T01:07:34;17.02;;;8.60;;
51560;SDS011;37654;51.262;17.058;2023-12-20T01:10:00;19.17;;;8.25;;
51560;SDS011;37654;51.262;17.058;2023-12-20T01:12:26;15.25;;;7.50;;
51560;SDS011;37654;51.262;17.058;2023-12-20T01:14:55;16.63;;;8.15;;
51560;SDS011;37654;51.262;17.058;2023-12-20T01:17:22;14.68;;;7.30;;
51560;SDS011;37654;51.262;17.058;2023-12-20T01:19:47;10.98;;;6.38;;
51560;SDS011;37654;51.262;17.058;2023-12-20T01:22:32;9.18;;;5.53;;
51560;SDS011;37654;51.262;17.058;2023-12-20T01:24:57;13.27;;;6.93;;
51560;SDS011;37654;51.262;17.058;2023-12-20T01:27:23;11.23;;;6.10;;
51560;SDS011;37654;51.262;17.058;2023-12-20T01:29:49;10.65;;;6.00;;
51560;SDS011;37654;51.262;17.058;2023-12-20T01:32:15;13.43;;;6.38;;
51560;SDS011;37654;51.262;17.058;2023-12-20T01:34:43;10.60;;;6.15;;
51560;SDS011;37654;51.262;17.058;2023-12-20T01:37:09;16.00;;;7.63;;
51560;SDS011;37654;51.262;17.058;2023-12-20T01:39:35;13.45;;;6.55;;
51560;SDS011;37654;51.262;17.058;2023-12-20T01:42:01;12.53;;;6.47;;
51560;SDS011;37654;51.262;17.058;2023-12-20T01:44:30;13.38;;;6.10;;
51560;SDS011;37654;51.262;17.058;2023-12-20T01:47:00;13.70;;;6.20;;
51560;SDS011;37654;51.262;17.058;2023-12-20T01:49:27;13.93;;;5.97;;
51560;SDS011;37654;51.262;17.058;2023-12-20T01:51:58;10.30;;;6.05;;
51560;SDS011;37654;51.262;17.058;2023-12-20T01:54:23;11.35;;;5.85;;
51560;SDS011;37654;51.262;17.058;2023-12-20T01:57:06;12.57;;;6.25;;
51560;SDS011;37654;51.262;17.058;2023-12-20T01:59:33;14.35;;;6.05;;
51560;SDS011;37654;51.262;17.058;2023-12-20T02:01:59;11.15;;;6.05;;
51560;SDS011;37654;51.262;17.058;2023-12-20T02:04:30;12.43;;;6.80;;
51560;SDS011;37654;51.262;17.058;2023-12-20T02:06:56;9.35;;;5.40;;
51560;SDS011;37654;51.262;17.058;2023-12-20T02:09:22;10.98;;;6.07;;
51560;SDS011;37654;51.262;17.058;2023-12-20T02:11:48;13.23;;;6.55;;
51560;SDS011;37654;51.262;17.058;2023-12-20T02:14:13;16.20;;;7.05;;
51560;SDS011;37654;51.262;17.058;2023-12-20T02:16:39;12.55;;;5.97;;
51560;SDS011;37654;51.262;17.058;2023-12-20T02:19:09;12.93;;;5.78;;
51560;SDS011;37654;51.262;17.058;2023-12-20T02:21:38;13.93;;;5.53;;
51560;SDS011;37654;51.262;17.058;2023-12-20T02:24:04;10.15;;;5.85;;
51560;SDS011;37654;51.262;17.058;2023-12-20T02:26:33;9.93;;;5.53;;
51560;SDS011;37654;51.262;17.058;2023-12-20T02:29:00;11.35;;;5.72;;
51560;SDS011;37654;51.262;17.058;2023-12-20T02:31:25;10.52;;;5.95;;
51560;SDS011;37654;51.262;17.058;2023-12-20T02:33:51;10.20;;;4.30;;
51560;SDS011;37654;51.262;17.058;2023-12-20T02:36:19;10.02;;;4.22;;
51560;SDS011;37654;51.262;17.058;2023-12-20T02:38:44;7.13;;;4.03;;
51560;SDS011;37654;51.262;17.058;2023-12-20T02:41:09;5.75;;;3.17;;
51560;SDS011;37654;51.262;17.058;2023-12-20T02:43:35;6.05;;;2.80;;
51560;SDS011;37654;51.262;17.058;2023-12-20T02:46:00;6.10;;;2.53;;
51560;SDS011;37654;51.262;17.058;2023-12-20T02:48:25;4.40;;;2.50;;
51560;SDS011;37654;51.262;17.058;2023-12-20T02:50:52;3.63;;;1.90;;
51560;SDS011;37654;51.262;17.058;2023-12-20T02:53:17;5.72;;;2.45;;
51560;SDS011;37654;51.262;17.058;2023-12-20T02:55:43;4.70;;;2.33;;
51560;SDS011;37654;51.262;17.058;2023-12-20T02:58:10;5.53;;;2.72;;
51560;SDS011;37654;51.262;17.058;2023-12-20T03:00:35;3.45;;;1.90;;
51560;SDS011;37654;51.262;17.058;2023-12-20T03:03:00;4.25;;;2.03;;
51560;SDS011;37654;51.262;17.058;2023-12-20T03:05:26;5.15;;;2.00;;
51560;SDS011;37654;51.262;17.058;2023-12-20T03:07:54;2.72;;;1.55;;
51560;SDS011;37654;51.262;17.058;2023-12-20T03:10:21;2.63;;;1.60;;
51560;SDS011;37654;51.262;17.058;2023-12-20T03:12:47;6.72;;;1.83;;
51560;SDS011;37654;51.262;17.058;2023-12-20T03:15:13;2.95;;;1.65;;
51560;SDS011;37654;51.262;17.058;2023-12-20T03:17:41;4.87;;;1.50;;
51560;SDS011;37654;51.262;17.058;2023-12-20T03:20:06;2.35;;;1.00;;
51560;SDS011;37654;51.262;17.058;2023-12-20T03:22:32;4.47;;;1.50;;
51560;SDS011;37654;51.262;17.058;2023-12-20T03:24:58;3.90;;;1.95;;
51560;SDS011;37654;51.262;17.058;2023-12-20T03:27:26;3.03;;;1.75;;
51560;SDS011;37654;51.262;17.058;2023-12-20T03:29:52;3.83;;;1.75;;
51560;SDS011;37654;51.262;17.058;2023-12-20T03:32:19;2.63;;;1.58;;
51560;SDS011;37654;51.262;17.058;2023-12-20T03:34:45;5.63;;;1.80;;
51560;SDS011;37654;51.262;17.058;2023-12-20T03:37:11;3.45;;;2.00;;
51560;SDS011;37654;51.262;17.058;2023-12-20T03:39:36;4.10;;;2.17;;
51560;SDS011;37654;51.262;17.058;2023-12-20T03:42:02;3.22;;;1.90;;
51560;SDS011;37654;51.262;17.058;2023-12-20T03:44:27;3.80;;;1.95;;
51560;SDS011;37654;51.262;17.058;2023-12-20T03:46:53;3.10;;;1.55;;
51560;SDS011;37654;51.262;17.058;2023-12-20T03:49:20;4.18;;;1.48;;
51560;SDS011;37654;51.262;17.058;2023-12-20T03:51:45;3.90;;;2.03;;
51560;SDS011;37654;51.262;17.058;2023-12-20T03:54:11;3.30;;;1.92;;
51560;SDS011;37654;51.262;17.058;2023-12-20T03:56:36;3.20;;;1.92;;
51560;SDS011;37654;51.262;17.058;2023-12-20T03:59:01;5.88;;;2.60;;
51560;SDS011;37654;51.262;17.058;2023-12-20T04:01:27;6.13;;;2.50;;
51560;SDS011;37654;51.262;17.058;2023-12-20T04:03:52;5.30;;;2.70;;
51560;SDS011;37654;51.262;17.058;2023-12-20T04:06:17;7.55;;;2.90;;
51560;SDS011;37654;51.262;17.058;2023-12-20T04:08:43;6.55;;;2.53;;
51560;SDS011;37654;51.262;17.058;2023-12-20T04:11:08;4.40;;;2.50;;
51560;SDS011;37654;51.262;17.058;2023-12-20T04:13:33;4.40;;;2.38;;
51560;SDS011;37654;51.262;17.058;2023-12-20T04:15:59;4.80;;;2.72;;
51560;SDS011;37654;51.262;17.058;2023-12-20T04:18:24;5.57;;;2.70;;
51560;SDS011;37654;51.262;17.058;2023-12-20T04:20:49;3.67;;;2.30;;
51560;SDS011;37654;51.262;17.058;2023-12-20T04:23:16;5.25;;;2.20;;
51560;SDS011;37654;51.262;17.058;2023-12-20T04:25:42;4.30;;;2.40;;
51560;SDS011;37654;51.262;17.058;2023-12-20T04:28:08;5.75;;;2.67;;
51560;SDS011;37654;51.262;17.058;2023-12-20T04:30:38;6.03;;;2.95;;
51560;SDS011;37654;51.262;17.058;2023-12-20T04:33:03;5.55;;;2.70;;
51560;SDS011;37654;51.262;17.058;2023-12-20T04:35:29;8.43;;;3.40;;
51560;SDS011;37654;51.262;17.058;2023-12-20T04:37:57;7.18;;;3.28;;
51560;SDS011;37654;51.262;17.058;2023-12-20T04:40:23;6.22;;;2.72;;
51560;SDS011;37654;51.262;17.058;2023-12-20T04:42:49;6.15;;;3.15;;
51560;SDS011;37654;51.262;17.058;2023-12-20T04:45:14;4.47;;;2.67;;
51560;SDS011;37654;51.262;17.058;2023-12-20T04:47:41;6.43;;;3.00;;
51560;SDS011;37654;51.262;17.058;2023-12-20T04:50:07;6.95;;;3.13;;
51560;SDS011;37654;51.262;17.058;2023-12-20T04:52:33;9.68;;;3.40;;
51560;SDS011;37654;51.262;17.058;2023-12-20T04:55:02;7.43;;;3.33;;
51560;SDS011;37654;51.262;17.058;2023-12-20T04:57:27;6.95;;;3.20;;
51560;SDS011;37654;51.262;17.058;2023-12-20T04:59:52;5.55;;;3.15;;
51560;SDS011;37654;51.262;17.058;2023-12-20T05:02:19;5.75;;;3.22;;
51560;SDS011;37654;51.262;17.058;2023-12-20T05:04:44;3.78;;;2.47;;
51560;SDS011;37654;51.262;17.058;2023-12-20T05:07:10;6.07;;;2.72;;
51560;SDS011;37654;51.262;17.058;2023-12-20T05:09:35;5.57;;;3.15;;
51560;SDS011;37654;51.262;17.058;2023-12-20T05:12:02;5.25;;;3.10;;
51560;SDS011;37654;51.262;17.058;2023-12-20T05:14:27;5.05;;;2.40;;
51560;SDS011;37654;51.262;17.058;2023-12-20T05:16:52;5.30;;;2.80;;
51560;SDS011;37654;51.262;17.058;2023-12-20T05:19:22;5.93;;;3.00;;
51560;SDS011;37654;51.262;17.058;2023-12-20T05:21:48;8.35;;;3.80;;
51560;SDS011;37654;51.262;17.058;2023-12-20T05:24:13;9.35;;;3.10;;
51560;SDS011;37654;51.262;17.058;2023-12-20T05:26:38;10.20;;;4.00;;
51560;SDS011;37654;51.262;17.058;2023-12-20T05:29:04;9.48;;;3.92;;
51560;SDS011;37654;51.262;17.058;2023-12-20T05:31:31;9.18;;;3.92;;
51560;SDS011;37654;51.262;17.058;2023-12-20T05:33:57;10.32;;;4.22;;
51560;SDS011;37654;51.262;17.058;2023-12-20T05:36:22;13.63;;;3.67;;
51560;SDS011;37654;51.262;17.058;2023-12-20T05:38:47;12.38;;;4.80;;
51560;SDS011;37654;51.262;17.058;2023-12-20T05:41:13;12.63;;;4.22;;
51560;SDS011;37654;51.262;17.058;2023-12-20T05:43:38;7.53;;;3.17;;
51560;SDS011;37654;51.262;17.058;2023-12-20T05:46:04;11.65;;;4.45;;
51560;SDS011;37654;51.262;17.058;2023-12-20T05:48:29;8.00;;;4.10;;
51560;SDS011;37654;51.262;17.058;2023-12-20T05:50:55;8.57;;;3.92;;
51560;SDS011;37654;51.262;17.058;2023-12-20T05:53:20;7.78;;;3.85;;
51560;SDS011;37654;51.262;17.058;2023-12-20T05:55:48;7.22;;;3.63;;
51560;SDS011;37654;51.262;17.058;2023-12-20T05:58:14;7.22;;;3.58;;
51560;SDS011;37654;51.262;17.058;2023-12-20T06:00:39;7.35;;;3.05;;
51560;SDS011;37654;51.262;17.058;2023-12-20T06:03:05;5.15;;;2.97;;
51560;SDS011;37654;51.262;17.058;2023-12-20T06:05:30;7.25;;;3.20;;
51560;SDS011;37654;51.262;17.058;2023-12-20T06:07:56;4.85;;;2.60;;
51560;SDS011;37654;51.262;17.058;2023-12-20T06:10:26;12.57;;;3.95;;
51560;SDS011;37654;51.262;17.058;2023-12-20T06:12:52;8.20;;;3.53;;
51560;SDS011;37654;51.262;17.058;2023-12-20T06:15:17;7.10;;;3.22;;
51560;SDS011;37654;51.262;17.058;2023-12-20T06:17:55;6.53;;;3.25;;
51560;SDS011;37654;51.262;17.058;2023-12-20T06:20:20;6.32;;;2.95;;
51560;SDS011;37654;51.262;17.058;2023-12-20T06:22:46;6.45;;;3.35;;
51560;SDS011;37654;51.262;17.058;2023-12-20T06:25:11;5.28;;;3.03;;
51560;SDS011;37654;51.262;17.058;2023-12-20T06:27:37;8.15;;;3.60;;
51560;SDS011;37654;51.262;17.058;2023-12-20T06:30:03;6.32;;;3.70;;
51560;SDS011;37654;51.262;17.058;2023-12-20T06:32:34;5.80;;;3.53;;
51560;SDS011;37654;51.262;17.058;2023-12-20T06:34:59;5.68;;;3.20;;
51560;SDS011;37654;51.262;17.058;2023-12-20T06:37:24;6.72;;;3.10;;
51560;SDS011;37654;51.262;17.058;2023-12-20T06:39:51;8.93;;;3.50;;
51560;SDS011;37654;51.262;17.058;2023-12-20T06:42:16;5.60;;;2.63;;
51560;SDS011;37654;51.262;17.058;2023-12-20T06:44:41;5.22;;;3.22;;
51560;SDS011;37654;51.262;17.058;2023-12-20T06:47:07;4.35;;;2.65;;
51560;SDS011;37654;51.262;17.058;2023-12-20T06:49:32;5.30;;;2.83;;
51560;SDS011;37654;51.262;17.058;2023-12-20T06:51:57;7.55;;;3.13;;
51560;SDS011;37654;51.262;17.058;2023-12-20T06:54:23;4.90;;;2.72;;
51560;SDS011;37654;51.262;17.058;2023-12-20T06:56:48;6.10;;;2.45;;
51560;SDS011;37654;51.262;17.058;2023-12-20T06:59:16;5.35;;;2.15;;
51560;SDS011;37654;51.262;17.058;2023-12-20T07:01:46;4.90;;;2.35;;
51560;SDS011;37654;51.262;17.058;2023-12-20T07:04:12;3.55;;;2.42;;
51560;SDS011;37654;51.262;17.058;2023-12-20T07:06:38;4.88;;;2.60;;
51560;SDS011;37654;51.262;17.058;2023-12-20T07:09:03;3.58;;;2.17;;
51560;SDS011;37654;51.262;17.058;2023-12-20T07:11:28;4.90;;;1.80;;
51560;SDS011;37654;51.262;17.058;2023-12-20T07:13:54;4.95;;;2.05;;
51560;SDS011;37654;51.262;17.058;2023-12-20T07:16:20;5.55;;;2.30;;
51560;SDS011;37654;51.262;17.058;2023-12-20T07:18:45;4.32;;;2.15;;
51560;SDS011;37654;51.262;17.058;2023-12-20T07:21:10;2.83;;;2.15;;
51560;SDS011;37654;51.262;17.058;2023-12-20T07:23:35;4.10;;;2.20;;
51560;SDS011;37654;51.262;17.058;2023-12-20T07:26:02;6.05;;;2.15;;
51560;SDS011;37654;51.262;17.058;2023-12-20T07:28:31;5.60;;;1.50;;
51560;SDS011;37654;51.262;17.058;2023-12-20T07:30:58;4.90;;;1.52;;
51560;SDS011;37654;51.262;17.058;2023-12-20T07:33:23;4.10;;;1.63;;
51560;SDS011;37654;51.262;17.058;2023-12-20T07:35:49;3.60;;;1.60;;
51560;SDS011;37654;51.262;17.058;2023-12-20T07:38:15;3.67;;;2.15;;
51560;SDS011;37654;51.262;17.058;2023-12-20T07:40:59;2.90;;;1.50;;
51560;SDS011;37654;51.262;17.058;2023-12-20T07:43:32;2.92;;;1.70;;
51560;SDS011;37654;51.262;17.058;2023-12-20T07:46:20;3.00;;;1.65;;
51560;SDS011;37654;51.262;17.058;2023-12-20T07:49:02;3.88;;;1.67;;
51560;SDS011;37654;51.262;17.058;2023-12-20T07:51:33;5.57;;;2.67;;
51560;SDS011;37654;51.262;17.058;2023-12-20T07:54:09;5.93;;;2.80;;
51560;SDS011;37654;51.262;17.058;2023-12-20T07:56:41;3.15;;;2.25;;
51560;SDS011;37654;51.262;17.058;2023-12-20T07:59:06;3.80;;;2.15;;
51560;SDS011;37654;51.262;17.058;2023-12-20T08:01:36;4.90;;;2.03;;
51560;SDS011;37654;51.262;17.058;2023-12-20T08:04:01;3.70;;;1.88;;
51560;SDS011;37654;51.262;17.058;2023-12-20T08:06:27;3.80;;;1.77;;
51560;SDS011;37654;51.262;17.058;2023-12-20T08:08:52;2.20;;;1.45;;
51560;SDS011;37654;51.262;17.058;2023-12-20T08:11:18;5.05;;;1.83;;
51560;SDS011;37654;51.262;17.058;2023-12-20T08:13:44;1.85;;;1.40;;
51560;SDS011;37654;51.262;17.058;2023-12-20T08:16:10;4.53;;;1.77;;
51560;SDS011;37654;51.262;17.058;2023-12-20T08:18:41;4.03;;;2.20;;
51560;SDS011;37654;51.262;17.058;2023-12-20T08:21:17;3.55;;;1.85;;
51560;SDS011;37654;51.262;17.058;2023-12-20T08:23:46;5.40;;;1.35;;
51560;SDS011;37654;51.262;17.058;2023-12-20T08:26:12;3.00;;;1.10;;
51560;SDS011;37654;51.262;17.058;2023-12-20T08:28:38;5.78;;;1.88;;
51560;SDS011;37654;51.262;17.058;2023-12-20T08:31:03;5.57;;;1.70;;
51560;SDS011;37654;51.262;17.058;2023-12-20T08:33:28;6.18;;;2.97;;
51560;SDS011;37654;51.262;17.058;2023-12-20T08:35:54;3.67;;;2.17;;
51560;SDS011;37654;51.262;17.058;2023-12-20T08:38:19;4.65;;;2.00;;
51560;SDS011;37654;51.262;17.058;2023-12-20T08:40:44;5.85;;;1.98;;
51560;SDS011;37654;51.262;17.058;2023-12-20T08:43:10;4.85;;;1.60;;
51560;SDS011;37654;51.262;17.058;2023-12-20T08:45:37;4.03;;;2.08;;
51560;SDS011;37654;51.262;17.058;2023-12-20T08:48:04;3.53;;;2.10;;
51560;SDS011;37654;51.262;17.058;2023-12-20T08:50:29;4.65;;;2.22;;
51560;SDS011;37654;51.262;17.058;2023-12-20T08:52:54;6.38;;;2.75;;
51560;SDS011;37654;51.262;17.058;2023-12-20T08:55:20;5.15;;;2.17;;
51560;SDS011;37654;51.262;17.058;2023-12-20T08:57:45;4.85;;;2.13;;
51560;SDS011;37654;51.262;17.058;2023-12-20T09:00:11;3.78;;;1.92;;
51560;SDS011;37654;51.262;17.058;2023-12-20T09:02:37;4.68;;;2.15;;
51560;SDS011;37654;51.262;17.058;2023-12-20T09:05:04;4.38;;;2.35;;
51560;SDS011;37654;51.262;17.058;2023-12-20T09:07:29;3.45;;;2.00;;
51560;SDS011;37654;51.262;17.058;2023-12-20T09:09:58;7.45;;;2.47;;
51560;SDS011;37654;51.262;17.058;2023-12-20T09:12:23;6.47;;;3.03;;
51560;SDS011;37654;51.262;17.058;2023-12-20T09:14:50;5.45;;;2.72;;
51560;SDS011;37654;51.262;17.058;2023-12-20T09:17:16;5.22;;;2.75;;
51560;SDS011;37654;51.262;17.058;2023-12-20T09:19:42;7.10;;;3.28;;
51560;SDS011;37654;51.262;17.058;2023-12-20T09:22:09;5.72;;;3.53;;
51560;SDS011;37654;51.262;17.058;2023-12-20T09:24:34;9.85;;;4.30;;
51560;SDS011;37654;51.262;17.058;2023-12-20T09:27:01;8.73;;;3.97;;
51560;SDS011;37654;51.262;17.058;2023-12-20T09:29:27;8.27;;;4.15;;
51560;SDS011;37654;51.262;17.058;2023-12-20T09:31:52;12.27;;;6.00;;
51560;SDS011;37654;51.262;17.058;2023-12-20T09:34:18;14.98;;;7.57;;
51560;SDS011;37654;51.262;17.058;2023-12-20T09:36:43;20.80;;;9.73;;
51560;SDS011;37654;51.262;17.058;2023-12-20T09:39:14;9.65;;;5.30;;
51560;SDS011;37654;51.262;17.058;2023-12-20T09:41:43;9.63;;;3.47;;
51560;SDS011;37654;51.262;17.058;2023-12-20T09:44:11;8.00;;;3.58;;
51560;SDS011;37654;51.262;17.058;2023-12-20T09:46:43;14.38;;;4.50;;
51560;SDS011;37654;51.262;17.058;2023-12-20T09:49:08;5.90;;;2.95;;
51560;SDS011;37654;51.262;17.058;2023-12-20T09:51:35;5.57;;;2.55;;
51560;SDS011;37654;51.262;17.058;2023-12-20T09:54:01;6.85;;;2.70;;
51560;SDS011;37654;51.262;17.058;2023-12-20T09:56:28;6.57;;;3.25;;
51560;SDS011;37654;51.262;17.058;2023-12-20T09:58:54;7.03;;;3.08;;
51560;SDS011;37654;51.262;17.058;2023-12-20T10:01:19;7.57;;;4.25;;
51560;SDS011;37654;51.262;17.058;2023-12-20T10:03:45;4.75;;;2.70;;
51560;SDS011;37654;51.262;17.058;2023-12-20T10:06:11;10.93;;;2.92;;
51560;SDS011;37654;51.262;17.058;2023-12-20T10:08:36;8.10;;;2.38;;
51560;SDS011;37654;51.262;17.058;2023-12-20T10:11:01;6.07;;;2.80;;
51560;SDS011;37654;51.262;17.058;2023-12-20T10:13:29;6.43;;;2.90;;
51560;SDS011;37654;51.262;17.058;2023-12-20T10:15:57;6.18;;;2.28;;
51560;SDS011;37654;51.262;17.058;2023-12-20T10:18:22;9.75;;;3.60;;
51560;SDS011;37654;51.262;17.058;2023-12-20T10:20:48;5.35;;;2.60;;
51560;SDS011;37654;51.262;17.058;2023-12-20T10:23:14;4.57;;;2.10;;
51560;SDS011;37654;51.262;17.058;2023-12-20T10:25:41;4.30;;;1.73;;
51560;SDS011;37654;51.262;17.058;2023-12-20T10:28:13;6.22;;;1.73;;
51560;SDS011;37654;51.262;17.058;2023-12-20T10:30:39;2.20;;;1.20;;
51560;SDS011;37654;51.262;17.058;2023-12-20T10:33:05;7.30;;;1.60;;
51560;SDS011;37654;51.262;17.058;2023-12-20T10:35:32;8.75;;;1.67;;
51560;SDS011;37654;51.262;17.058;2023-12-20T10:37:58;4.00;;;1.45;;
51560;SDS011;37654;51.262;17.058;2023-12-20T10:40:28;11.07;;;1.52;;
51560;SDS011;37654;51.262;17.058;2023-12-20T10:42:54;2.50;;;1.42;;
51560;SDS011;37654;51.262;17.058;2023-12-20T10:45:21;4.80;;;1.25;;
51560;SDS011;37654;51.262;17.058;2023-12-20T10:47:47;5.35;;;1.35;;
51560;SDS011;37654;51.262;17.058;2023-12-20T10:50:14;3.47;;;0.90;;
51560;SDS011;37654;51.262;17.058;2023-12-20T10:52:40;4.93;;;1.35;;
51560;SDS011;37654;51.262;17.058;2023-12-20T10:55:09;4.60;;;1.40;;
51560;SDS011;37654;51.262;17.058;2023-12-20T10:57:34;5.45;;;1.23;;
51560;SDS011;37654;51.262;17.058;2023-12-20T11:00:01;2.85;;;1.27;;
51560;SDS011;37654;51.262;17.058;2023-12-20T11:02:31;4.80;;;1.58;;
51560;SDS011;37654;51.262;17.058;2023-12-20T11:05:19;7.05;;;1.17;;
51560;SDS011;37654;51.262;17.058;2023-12-20T11:10:43;4.25;;;1.15;;
51560;SDS011;37654;51.262;17.058;2023-12-20T11:13:14;4.95;;;1.35;;
51560;SDS011;37654;51.262;17.058;2023-12-20T11:15:42;4.28;;;1.50;;
51560;SDS011;37654;51.262;17.058;2023-12-20T11:18:07;6.50;;;1.65;;
51560;SDS011;37654;51.262;17.058;2023-12-20T11:20:39;3.35;;;1.30;;
51560;SDS011;37654;51.262;17.058;2023-12-20T11:23:08;9.98;;;2.10;;
51560;SDS011;37654;51.262;17.058;2023-12-20T11:25:46;3.60;;;1.40;;
51560;SDS011;37654;51.262;17.058;2023-12-20T11:28:24;5.55;;;1.38;;
51560;SDS011;37654;51.262;17.058;2023-12-20T11:30:52;6.05;;;1.38;;
51560;SDS011;37654;51.262;17.058;2023-12-20T11:33:39;4.18;;;1.15;;
51560;SDS011;37654;51.262;17.058;2023-12-20T11:36:14;6.05;;;1.48;;
51560;SDS011;37654;51.262;17.058;2023-12-20T11:39:02;5.95;;;1.50;;
51560;SDS011;37654;51.262;17.058;2023-12-20T11:41:31;4.90;;;1.40;;
51560;SDS011;37654;51.262;17.058;2023-12-20T11:44:12;5.78;;;1.50;;
51560;SDS011;37654;51.262;17.058;2023-12-20T11:46:46;4.38;;;1.40;;
51560;SDS011;37654;51.262;17.058;2023-12-20T11:49:14;6.00;;;1.13;;
51560;SDS011;37654;51.262;17.058;2023-12-20T11:51:43;8.00;;;1.50;;
51560;SDS011;37654;51.262;17.058;2023-12-20T11:54:09;4.40;;;1.20;;
51560;SDS011;37654;51.262;17.058;2023-12-20T11:56:36;9.48;;;2.05;;
51560;SDS011;37654;51.262;17.058;2023-12-20T11:59:01;3.13;;;1.27;;
51560;SDS011;37654;51.262;17.058;2023-12-20T12:01:27;3.92;;;1.73;;
51560;SDS011;37654;51.262;17.058;2023-12-20T12:04:02;3.58;;;1.42;;
51560;SDS011;37654;51.262;17.058;2023-12-20T12:06:33;4.47;;;2.20;;
51560;SDS011;37654;51.262;17.058;2023-12-20T12:08:58;5.75;;;1.70;;
51560;SDS011;37654;51.262;17.058;2023-12-20T12:11:25;5.57;;;1.90;;
51560;SDS011;37654;51.262;17.058;2023-12-20T12:14:00;8.38;;;1.90;;
51560;SDS011;37654;51.262;17.058;2023-12-20T12:16:30;3.47;;;1.58;;
51560;SDS011;37654;51.262;17.058;2023-12-20T12:18:56;3.10;;;1.33;;
51560;SDS011;37654;51.262;17.058;2023-12-20T12:21:26;4.35;;;1.50;;
51560;SDS011;37654;51.262;17.058;2023-12-20T12:24:08;4.45;;;2.28;;
51560;SDS011;37654;51.262;17.058;2023-12-20T12:26:49;7.70;;;2.17;;
51560;SDS011;37654;51.262;17.058;2023-12-20T12:29:14;5.93;;;1.98;;
51560;SDS011;37654;51.262;17.058;2023-12-20T12:31:39;4.60;;;1.40;;
51560;SDS011;37654;51.262;17.058;2023-12-20T12:34:05;6.13;;;1.73;;
51560;SDS011;37654;51.262;17.058;2023-12-20T12:36:32;8.35;;;1.92;;
51560;SDS011;37654;51.262;17.058;2023-12-20T12:39:02;9.48;;;3.03;;
51560;SDS011;37654;51.262;17.058;2023-12-20T12:41:39;5.28;;;1.50;;
51560;SDS011;37654;51.262;17.058;2023-12-20T12:44:08;4.70;;;1.20;;
51560;SDS011;37654;51.262;17.058;2023-12-20T12:46:34;2.30;;;1.30;;
51560;SDS011;37654;51.262;17.058;2023-12-20T12:49:22;4.18;;;1.10;;
51560;SDS011;37654;51.262;17.058;2023-12-20T12:51:48;5.93;;;1.35;;
51560;SDS011;37654;51.262;17.058;2023-12-20T12:54:14;3.70;;;1.38;;
51560;SDS011;37654;51.262;17.058;2023-12-20T12:56:42;3.28;;;1.20;;
51560;SDS011;37654;51.262;17.058;2023-12-20T12:59:09;3.53;;;1.15;;
51560;SDS011;37654;51.262;17.058;2023-12-20T13:01:35;5.90;;;1.55;;
51560;SDS011;37654;51.262;17.058;2023-12-20T13:04:01;5.78;;;1.88;;
51560;SDS011;37654;51.262;17.058;2023-12-20T13:06:31;6.57;;;1.42;;
51560;SDS011;37654;51.262;17.058;2023-12-20T13:08:57;4.05;;;1.50;;
51560;SDS011;37654;51.262;17.058;2023-12-20T13:11:22;4.80;;;1.58;;
51560;SDS011;37654;51.262;17.058;2023-12-20T13:13:53;6.55;;;1.38;;
51560;SDS011;37654;51.262;17.058;2023-12-20T13:16:20;5.75;;;1.40;;
51560;SDS011;37654;51.262;17.058;2023-12-20T13:18:51;6.18;;;1.75;;
51560;SDS011;37654;51.262;17.058;2023-12-20T13:21:25;8.38;;;1.90;;
51560;SDS011;37654;51.262;17.058;2023-12-20T13:23:52;6.00;;;2.60;;
51560;SDS011;37654;51.262;17.058;2023-12-20T13:26:19;6.78;;;1.73;;
51560;SDS011;37654;51.262;17.058;2023-12-20T13:28:44;8.77;;;2.25;;
51560;SDS011;37654;51.262;17.058;2023-12-20T13:31:10;6.93;;;1.48;;
51560;SDS011;37654;51.262;17.058;2023-12-20T13:33:37;7.35;;;1.65;;
51560;SDS011;37654;51.262;17.058;2023-12-20T13:36:08;4.00;;;1.75;;
51560;SDS011;37654;51.262;17.058;2023-12-20T13:38:35;4.50;;;1.48;;
51560;SDS011;37654;51.262;17.058;2023-12-20T13:41:02;3.22;;;1.63;;
51560;SDS011;37654;51.262;17.058;2023-12-20T13:43:27;3.63;;;1.20;;
51560;SDS011;37654;51.262;17.058;2023-12-20T13:46:26;6.40;;;1.75;;
51560;SDS011;37654;51.262;17.058;2023-12-20T13:48:54;4.97;;;1.63;;
51560;SDS011;37654;51.262;17.058;2023-12-20T13:51:34;13.02;;;2.17;;
51560;SDS011;37654;51.262;17.058;2023-12-20T13:54:18;7.00;;;1.45;;
51560;SDS011;37654;51.262;17.058;2023-12-20T13:57:01;6.20;;;2.08;;
51560;SDS011;37654;51.262;17.058;2023-12-20T13:59:29;8.32;;;1.60;;
51560;SDS011;37654;51.262;17.058;2023-12-20T14:01:55;6.63;;;1.35;;
51560;SDS011;37654;51.262;17.058;2023-12-20T14:04:23;8.40;;;2.00;;
51560;SDS011;37654;51.262;17.058;2023-12-20T14:07:10;4.65;;;1.35;;
51560;SDS011;37654;51.262;17.058;2023-12-20T14:09:37;8.68;;;1.83;;
51560;SDS011;37654;51.262;17.058;2023-12-20T14:12:16;4.93;;;1.55;;
51560;SDS011;37654;51.262;17.058;2023-12-20T14:14:41;2.67;;;1.20;;
51560;SDS011;37654;51.262;17.058;2023-12-20T14:17:06;6.78;;;1.30;;
51560;SDS011;37654;51.262;17.058;2023-12-20T14:19:33;2.92;;;1.40;;
51560;SDS011;37654;51.262;17.058;2023-12-20T14:22:06;4.15;;;1.30;;
51560;SDS011;37654;51.262;17.058;2023-12-20T14:24:54;4.88;;;1.30;;
51560;SDS011;37654;51.262;17.058;2023-12-20T14:27:38;9.50;;;1.52;;
51560;SDS011;37654;51.262;17.058;2023-12-20T14:30:43;11.27;;;1.80;;
51560;SDS011;37654;51.262;17.058;2023-12-20T14:33:34;4.53;;;1.52;;
51560;SDS011;37654;51.262;17.058;2023-12-20T14:36:21;3.38;;;1.42;;
51560;SDS011;37654;51.262;17.058;2023-12-20T14:38:53;5.70;;;1.63;;